Time;durP1;ratioP1;P1;durP2;ratioP2;P2;SDS_P1;SDS_P2;PMS_P1;PMS_P2;Temp;Humidity;BMP_temperature;BMP_pressure;BME280_temperature;BME280_humidity;BME280_pressure;Samples;Min_cycle;Max_cycle;Signal;HPM_P1;HPM_P2
2022/09/20 00:01:07;;;;;;;8.18;2.00;;;12.60;99.90;;;;;;4182627;28;20242;-93
2022/09/20 00:03:08;;;;;;;8.30;2.28;;;12.60;99.90;;;;;;4182714;28;20270;-93
2022/09/20 00:05:09;;;;;;;6.32;1.95;;;12.60;99.90;;;;;;4199212;28;20206;-92
2022/09/20 00:07:10;;;;;;;10.57;1.60;;;12.70;99.90;;;;;;4182521;28;20237;-92
2022/09/20 00:09:11;;;;;;;4.93;1.80;;;12.70;99.90;;;;;;4182314;28;20229;-92
2022/09/20 00:11:20;;;;;;;10.07;1.92;;;12.60;99.90;;;;;;4182572;28;20175;-91
2022/09/20 00:13:21;;;;;;;11.05;1.73;;;12.60;99.90;;;;;;4199195;28;20162;-92
2022/09/20 00:15:22;;;;;;;5.03;1.83;;;12.50;99.90;;;;;;4182629;28;20249;-93
2022/09/20 00:17:22;;;;;;;11.50;1.95;;;12.50;99.90;;;;;;4183062;28;20226;-92
2022/09/20 00:19:24;;;;;;;11.15;2.10;;;12.50;99.90;;;;;;4214846;28;20182;-91
2022/09/20 00:21:27;;;;;;;11.27;2.13;;;12.60;99.90;;;;;;4194416;28;20914;-91
2022/09/20 00:23:29;;;;;;;6.13;1.83;;;12.70;99.90;;;;;;4182930;28;20183;-92
2022/09/20 00:25:29;;;;;;;16.35;2.08;;;12.60;99.90;;;;;;4182645;28;20187;-91
2022/09/20 00:27:30;;;;;;;6.95;1.73;;;12.60;99.90;;;;;;4182064;28;20167;-91
2022/09/20 00:29:30;;;;;;;9.30;2.08;;;12.60;99.90;;;;;;4182064;28;20199;-91
2022/09/20 00:31:31;;;;;;;7.78;1.80;;;12.50;99.90;;;;;;4182236;28;20262;-91
2022/09/20 00:35:52;;;;;;;7.72;1.92;;;12.50;99.90;;;;;;4198752;28;20207;-92
2022/09/20 00:37:53;;;;;;;9.00;2.20;;;12.50;99.90;;;;;;4182101;28;20225;-93
2022/09/20 00:39:53;;;;;;;6.75;1.83;;;12.50;99.90;;;;;;4198399;28;20741;-92
2022/09/20 00:41:54;;;;;;;8.10;1.98;;;12.40;99.90;;;;;;4181796;28;20179;-92
2022/09/20 00:43:55;;;;;;;6.80;2.17;;;12.40;99.90;;;;;;4181759;28;20189;-92
2022/09/20 00:45:56;;;;;;;6.47;2.10;;;12.40;99.90;;;;;;4181876;28;20170;-93
2022/09/20 00:48:10;;;;;;;10.60;2.35;;;12.30;99.90;;;;;;4181828;28;20218;-91
2022/09/20 00:50:29;;;;;;;5.45;2.10;;;12.30;99.90;;;;;;4182096;28;20221;-92
2022/09/20 00:52:31;;;;;;;9.05;2.20;;;12.40;99.90;;;;;;4181866;28;20195;-92
2022/09/20 00:54:33;;;;;;;7.07;2.03;;;12.50;99.90;;;;;;4197980;28;20267;-91
2022/09/20 00:56:37;;;;;;;5.03;2.20;;;12.60;99.90;;;;;;4198138;28;20185;-91
2022/09/20 00:58:44;;;;;;;8.55;2.15;;;12.60;99.90;;;;;;4181605;28;20213;-91
2022/09/20 01:00:47;;;;;;;8.65;2.08;;;12.70;99.90;;;;;;4181740;28;20199;-93
2022/09/20 01:02:52;;;;;;;5.13;2.40;;;12.70;99.90;;;;;;4198227;28;20270;-91
2022/09/20 01:04:56;;;;;;;7.90;2.30;;;12.70;99.90;;;;;;4181730;28;20175;-92
2022/09/20 01:07:00;;;;;;;13.85;2.60;;;12.70;99.90;;;;;;4181354;28;20175;-93
2022/09/20 01:09:04;;;;;;;12.02;3.00;;;12.60;99.90;;;;;;4181341;28;20244;-92
2022/09/20 01:11:05;;;;;;;8.40;2.42;;;12.70;99.90;;;;;;4197900;28;20177;-92
2022/09/20 01:13:05;;;;;;;10.90;2.30;;;12.70;99.90;;;;;;4181454;28;20195;-92
2022/09/20 01:15:08;;;;;;;11.43;2.50;;;12.60;99.90;;;;;;4180949;28;20215;-93
2022/09/20 01:17:10;;;;;;;5.82;2.70;;;12.60;99.90;;;;;;4181728;28;20168;-92
2022/09/20 01:19:46;;;;;;;5.63;2.45;;;12.60;99.90;;;;;;4181659;28;20229;-92
2022/09/20 01:21:47;;;;;;;8.27;2.40;;;12.60;99.90;;;;;;4166737;28;20278;-93
2022/09/20 01:23:59;;;;;;;8.43;2.92;;;12.80;99.90;;;;;;4181347;28;20603;-92
2022/09/20 01:26:18;;;;;;;9.88;2.55;;;13.00;99.90;;;;;;4181354;28;20598;-92
2022/09/20 01:28:20;;;;;;;8.43;2.78;;;12.90;99.90;;;;;;4181349;28;20198;-92
2022/09/20 01:30:23;;;;;;;9.15;2.88;;;12.70;99.90;;;;;;4181144;28;20168;-93
2022/09/20 01:32:53;;;;;;;11.23;2.90;;;12.60;99.90;;;;;;4181504;28;20175;-92
2022/09/20 01:35:00;;;;;;;6.40;2.35;;;12.60;99.90;;;;;;4162617;28;20261;-92
2022/09/20 01:37:22;;;;;;;7.30;2.65;;;12.50;99.90;;;;;;4181170;28;20179;-92
2022/09/20 01:40:03;;;;;;;12.73;3.17;;;12.40;99.90;;;;;;4180757;28;20199;-91
2022/09/20 01:42:30;;;;;;;8.90;2.53;;;12.40;99.90;;;;;;4181117;28;20176;-92
2022/09/20 01:45:07;;;;;;;4.70;2.53;;;12.40;99.90;;;;;;4181090;28;20245;-92
2022/09/20 01:47:17;;;;;;;9.90;2.83;;;12.30;99.90;;;;;;4181373;28;20174;-93
2022/09/20 01:49:32;;;;;;;15.52;2.90;;;12.20;99.90;;;;;;4181107;28;20187;-93
2022/09/20 01:51:57;;;;;;;8.35;2.40;;;12.20;99.90;;;;;;4181169;28;20540;-92
2022/09/20 01:54:14;;;;;;;9.80;2.25;;;12.10;99.90;;;;;;4181069;28;20201;-93
2022/09/20 01:56:49;;;;;;;7.40;2.58;;;11.90;99.90;;;;;;4181147;28;20191;-93
2022/09/20 01:59:12;;;;;;;8.43;2.60;;;11.90;99.90;;;;;;4180901;28;20261;-93
2022/09/20 02:01:22;;;;;;;7.50;2.58;;;11.90;99.90;;;;;;4197752;28;20559;-92
2022/09/20 02:03:54;;;;;;;11.73;2.58;;;11.90;99.90;;;;;;4180991;28;20170;-93
2022/09/20 02:06:22;;;;;;;13.32;2.45;;;11.80;99.90;;;;;;4181073;28;20268;-93
2022/09/20 02:08:43;;;;;;;15.68;2.95;;;11.80;99.90;;;;;;4181064;28;20195;-92
2022/09/20 02:11:08;;;;;;;9.80;2.83;;;11.80;99.90;;;;;;4180936;28;20194;-93
2022/09/20 02:13:40;;;;;;;9.50;2.58;;;11.80;99.90;;;;;;4197732;28;20202;-93
2022/09/20 02:15:46;;;;;;;10.70;2.70;;;11.80;99.90;;;;;;4156507;28;20215;-93
2022/09/20 02:18:06;;;;;;;7.35;2.50;;;11.80;99.90;;;;;;4181157;28;20172;-92
2022/09/20 02:20:36;;;;;;;9.57;2.97;;;11.90;99.90;;;;;;4181079;28;20182;-93
2022/09/20 02:22:40;;;;;;;9.68;2.53;;;11.90;99.90;;;;;;4181023;28;20207;-92
2022/09/20 02:25:04;;;;;;;8.60;2.70;;;12.00;99.90;;;;;;4180958;28;20183;-93
2022/09/20 02:27:33;;;;;;;8.63;2.60;;;12.10;99.90;;;;;;4182250;28;20182;-93
2022/09/20 02:30:04;;;;;;;11.00;2.70;;;12.20;99.90;;;;;;4184200;28;20203;-94
2022/09/20 02:32:41;;;;;;;11.32;2.50;;;12.30;99.90;;;;;;4200712;28;20202;-92
2022/09/20 02:34:42;;;;;;;7.53;2.55;;;12.30;99.90;;;;;;4200597;28;20593;-93
2022/09/20 02:37:14;;;;;;;9.45;3.00;;;12.30;99.90;;;;;;4184094;28;20167;-91
2022/09/20 02:39:21;;;;;;;6.97;2.50;;;12.40;99.90;;;;;;4183966;28;20226;-92
2022/09/20 02:41:54;;;;;;;10.50;2.40;;;12.40;99.90;;;;;;4183946;28;20654;-93
2022/09/20 02:44:17;;;;;;;10.32;2.90;;;12.50;99.90;;;;;;4175311;28;20261;-92
2022/09/20 02:46:20;;;;;;;6.40;2.30;;;12.50;99.90;;;;;;4183907;28;20175;-93
2022/09/20 02:48:33;;;;;;;10.93;2.28;;;12.50;99.90;;;;;;4184228;28;20227;-92
2022/09/20 02:50:54;;;;;;;7.80;2.58;;;12.50;99.90;;;;;;4185233;28;20179;-93
2022/09/20 02:53:21;;;;;;;12.45;2.72;;;12.60;99.90;;;;;;4200891;22;20302;-86
2022/09/20 02:55:43;;;;;;;4.72;2.38;;;12.70;99.90;;;;;;4168018;28;20299;-87
2022/09/20 02:58:04;;;;;;;8.80;2.80;;;12.70;99.90;;;;;;4167066;28;20176;-87
2022/09/20 03:00:11;;;;;;;4.57;2.25;;;12.70;99.90;;;;;;4141220;28;20196;-86
2022/09/20 03:02:21;;;;;;;10.95;2.75;;;12.50;99.90;;;;;;4151685;28;20595;-89
2022/09/20 03:04:51;;;;;;;10.98;2.38;;;12.50;99.90;;;;;;4134532;28;20613;-88
2022/09/20 03:07:17;;;;;;;11.45;2.10;;;12.50;99.90;;;;;;4152434;28;20192;-87
2022/09/20 03:09:30;;;;;;;8.43;2.25;;;12.40;99.90;;;;;;4167594;28;20188;-87
2022/09/20 03:11:53;;;;;;;10.13;2.80;;;12.40;99.90;;;;;;4134344;28;20233;-88
2022/09/20 03:14:21;;;;;;;6.35;2.22;;;12.30;99.90;;;;;;4134421;28;20169;-88
2022/09/20 03:17:10;;;;;;;8.93;2.35;;;12.20;99.90;;;;;;4134299;28;20193;-87
2022/09/20 03:19:20;;;;;;;10.52;2.15;;;12.10;99.90;;;;;;4125529;28;20206;-88
2022/09/20 03:21:35;;;;;;;6.13;2.40;;;12.20;99.90;;;;;;4150332;28;20177;-88
2022/09/20 03:24:06;;;;;;;8.32;2.28;;;12.10;99.90;;;;;;4135344;28;20260;-87
2022/09/20 03:26:20;;;;;;;7.60;2.22;;;12.10;99.90;;;;;;4135508;28;20189;-87
2022/09/20 03:28:34;;;;;;;14.60;2.60;;;12.00;99.90;;;;;;4151403;28;20242;-88
2022/09/20 03:30:58;;;;;;;9.05;2.35;;;12.00;99.90;;;;;;4134434;28;20667;-87
2022/09/20 03:33:12;;;;;;;9.68;2.58;;;12.10;99.90;;;;;;4135006;28;20181;-88
2022/09/20 03:35:57;;;;;;;8.02;2.38;;;12.20;99.90;;;;;;4136596;28;20225;-88
2022/09/20 03:38:04;;;;;;;8.65;2.17;;;12.30;99.90;;;;;;4142320;28;20184;-88
2022/09/20 03:40:39;;;;;;;5.20;2.13;;;12.20;99.90;;;;;;4167682;28;20263;-87
2022/09/20 03:42:47;;;;;;;6.88;2.45;;;12.30;99.90;;;;;;4167581;28;20172;-87
2022/09/20 03:44:53;;;;;;;13.27;2.30;;;12.30;99.90;;;;;;4150104;28;20255;-88
2022/09/20 03:47:12;;;;;;;10.13;2.42;;;12.20;99.90;;;;;;4134114;28;20184;-88
2022/09/20 03:49:30;;;;;;;9.07;2.60;;;12.20;99.90;;;;;;4150995;28;20735;-88
2022/09/20 03:51:51;;;;;;;9.35;2.63;;;12.10;99.90;;;;;;4136012;28;20542;-88
2022/09/20 03:54:33;;;;;;;6.30;2.63;;;12.10;99.90;;;;;;4133729;28;20189;-89
2022/09/20 03:56:58;;;;;;;6.68;2.72;;;12.00;99.90;;;;;;4133640;28;20642;-88
2022/09/20 03:59:24;;;;;;;8.15;2.60;;;12.00;99.90;;;;;;4133812;28;20190;-89
2022/09/20 04:01:44;;;;;;;8.98;3.03;;;12.00;99.90;;;;;;4134696;28;20181;-88
2022/09/20 04:03:56;;;;;;;11.07;3.38;;;11.90;99.90;;;;;;4151174;28;20185;-88
2022/09/20 04:06:09;;;;;;;12.07;3.35;;;11.90;99.90;;;;;;4149790;28;20232;-88
2022/09/20 04:08:12;;;;;;;10.32;3.47;;;11.80;99.90;;;;;;4133544;28;20177;-88
2022/09/20 04:10:43;;;;;;;12.60;3.83;;;11.70;99.90;;;;;;4133430;28;20232;-89
2022/09/20 04:13:21;;;;;;;10.63;3.60;;;11.70;99.90;;;;;;4134231;28;20182;-88
2022/09/20 04:15:46;;;;;;;8.52;3.78;;;11.70;99.90;;;;;;4133850;28;20613;-89
2022/09/20 04:17:56;;;;;;;9.80;2.80;;;11.70;99.90;;;;;;4133203;28;20185;-88
2022/09/20 04:20:15;;;;;;;6.25;2.50;;;11.60;99.90;;;;;;4133211;28;20193;-88
2022/09/20 04:22:20;;;;;;;7.60;3.22;;;11.50;99.90;;;;;;4134028;28;20677;-88
2022/09/20 04:24:27;;;;;;;12.07;3.20;;;11.50;99.90;;;;;;4135666;28;20252;-87
2022/09/20 04:26:30;;;;;;;8.65;3.25;;;11.50;99.90;;;;;;4133462;28;20177;-87
2022/09/20 04:28:47;;;;;;;10.10;3.60;;;11.50;99.90;;;;;;4133771;28;20195;-88
2022/09/20 04:30:52;;;;;;;14.85;3.80;;;11.40;99.90;;;;;;4134059;28;20272;-88
2022/09/20 04:33:14;;;;;;;10.20;3.55;;;11.40;99.90;;;;;;4133853;28;20233;-88
2022/09/20 04:37:55;;;;;;;11.18;3.22;;;11.40;99.90;;;;;;4149201;28;20219;-88
2022/09/20 04:40:27;;;;;;;8.50;3.53;;;11.40;99.90;;;;;;4148985;28;20203;-88
2022/09/20 04:42:46;;;;;;;17.83;4.07;;;11.40;99.90;;;;;;4149385;28;20169;-89
2022/09/20 04:45:27;;;;;;;9.75;3.28;;;11.30;99.90;;;;;;4132955;28;20174;-88
2022/09/20 04:47:56;;;;;;;8.38;3.63;;;11.30;99.90;;;;;;4132611;28;20185;-88
2022/09/20 04:50:18;;;;;;;12.82;3.20;;;11.20;99.90;;;;;;4132751;28;20199;-88
2022/09/20 04:52:37;;;;;;;9.23;3.35;;;11.10;99.90;;;;;;4133466;28;20199;-88
2022/09/20 04:55:23;;;;;;;8.63;3.30;;;11.10;99.90;;;;;;4132649;28;20225;-88
2022/09/20 04:57:38;;;;;;;11.18;3.33;;;11.10;99.90;;;;;;4149787;28;20179;-88
2022/09/20 04:59:41;;;;;;;8.55;3.65;;;11.10;99.90;;;;;;4132869;28;20256;-88
2022/09/20 05:02:19;;;;;;;12.35;4.20;;;11.10;99.90;;;;;;4133043;28;20641;-88
2022/09/20 05:04:43;;;;;;;12.95;3.97;;;11.00;99.90;;;;;;4134238;28;20204;-88
2022/09/20 05:07:08;;;;;;;11.00;3.90;;;11.10;99.90;;;;;;4147834;28;20188;-88
2022/09/20 05:09:20;;;;;;;9.82;3.70;;;11.00;99.90;;;;;;4133187;28;20209;-89
2022/09/20 05:11:46;;;;;;;9.65;4.43;;;11.10;99.90;;;;;;4134061;28;20673;-88
2022/09/20 05:14:15;;;;;;;10.60;4.05;;;11.00;99.90;;;;;;4132289;28;20192;-88
2022/09/20 05:16:59;;;;;;;13.15;4.10;;;11.00;99.90;;;;;;4133244;28;20220;-89
2022/09/20 05:19:12;;;;;;;13.68;4.10;;;11.00;99.90;;;;;;4149165;28;20213;-89
2022/09/20 05:21:46;;;;;;;12.52;4.13;;;10.90;99.90;;;;;;4135501;28;20251;-87
2022/09/20 05:24:27;;;;;;;14.20;4.60;;;10.80;99.90;;;;;;4070491;29;20191;-88
2022/09/20 05:26:30;;;;;;;10.98;4.50;;;10.80;99.90;;;;;;4132911;28;20671;-88
2022/09/20 05:28:45;;;;;;;12.73;4.32;;;10.70;99.90;;;;;;4149135;28;20189;-88
2022/09/20 05:30:46;;;;;;;10.85;4.28;;;10.70;99.90;;;;;;4148645;28;20177;-88
2022/09/20 05:33:24;;;;;;;16.42;4.30;;;10.70;99.90;;;;;;4132810;28;20204;-88
2022/09/20 05:35:50;;;;;;;10.27;4.18;;;10.70;99.90;;;;;;4133731;28;20243;-88
2022/09/20 05:38:17;;;;;;;9.55;3.63;;;10.80;99.90;;;;;;4164919;28;20203;-88
2022/09/20 05:40:27;;;;;;;12.68;4.35;;;10.70;99.90;;;;;;4148376;28;20204;-88
2022/09/20 05:42:54;;;;;;;11.23;4.07;;;10.80;99.90;;;;;;4148308;28;20537;-88
2022/09/20 05:45:37;;;;;;;16.27;4.60;;;10.80;99.90;;;;;;4132196;28;20206;-88
2022/09/20 05:47:52;;;;;;;11.38;4.28;;;10.80;99.90;;;;;;4139047;28;20243;-88
2022/09/20 05:50:37;;;;;;;10.70;4.40;;;10.80;99.90;;;;;;4148407;28;20291;-88
2022/09/20 05:52:59;;;;;;;8.23;4.38;;;10.90;99.90;;;;;;4146848;28;20276;-88
2022/09/20 05:55:19;;;;;;;12.80;4.65;;;10.90;99.90;;;;;;4148647;28;20311;-88
2022/09/20 05:57:26;;;;;;;13.57;4.30;;;10.80;99.90;;;;;;4148797;28;20219;-88
2022/09/20 05:59:57;;;;;;;15.20;4.88;;;10.90;99.90;;;;;;4131750;28;20311;-89
2022/09/20 06:02:08;;;;;;;15.05;5.07;;;11.00;99.90;;;;;;4134765;28;20217;-89
2022/09/20 06:04:16;;;;;;;13.43;5.32;;;11.20;99.90;;;;;;4136689;28;20181;-88
2022/09/20 06:07:01;;;;;;;10.25;4.63;;;11.30;99.90;;;;;;4151920;28;20172;-89
2022/09/20 06:09:08;;;;;;;15.55;4.50;;;11.40;99.90;;;;;;4115815;28;20221;-90
2022/09/20 06:11:26;;;;;;;11.73;4.57;;;11.50;99.90;;;;;;4137134;28;20181;-88
2022/09/20 06:13:50;;;;;;;17.48;4.30;;;11.50;99.90;;;;;;4138458;28;20170;-88
2022/09/20 06:16:01;;;;;;;12.32;4.68;;;11.50;99.90;;;;;;4097131;28;20256;-87
2022/09/20 06:18:30;;;;;;;12.20;4.70;;;11.60;99.90;;;;;;4136817;28;20178;-87
2022/09/20 06:20:43;;;;;;;14.38;4.20;;;11.70;99.90;;;;;;4134206;28;20177;-87
2022/09/20 06:22:50;;;;;;;13.45;4.10;;;11.80;99.90;;;;;;4138608;28;20181;-87
2022/09/20 06:24:59;;;;;;;12.02;4.28;;;11.90;99.90;;;;;;4139004;28;20169;-87
2022/09/20 06:27:07;;;;;;;11.77;4.55;;;12.00;99.90;;;;;;4152637;28;20179;-87
2022/09/20 06:29:12;;;;;;;13.13;4.65;;;12.00;99.90;;;;;;4139338;28;20567;-95
2022/09/20 06:31:15;;;;;;;11.23;4.20;;;12.00;99.90;;;;;;4124104;28;20205;-88
2022/09/20 06:33:27;;;;;;;9.63;4.38;;;11.90;99.90;;;;;;4152524;28;20264;-87
2022/09/20 06:35:38;;;;;;;13.77;4.32;;;11.80;99.90;;;;;;4168624;28;20277;-94
2022/09/20 06:42:49;;;;;;;20.70;4.40;;;11.90;99.90;;;;;;4152106;28;20181;-88
2022/09/20 06:44:49;;;;;;;14.95;4.43;;;12.10;99.90;;;;;;4134862;28;20216;-88
2022/09/20 06:46:53;;;;;;;10.02;4.32;;;12.10;99.90;;;;;;4134569;28;20672;-88
2022/09/20 06:48:54;;;;;;;9.35;3.53;;;12.40;99.90;;;;;;4135358;28;20202;-88
2022/09/20 06:50:55;;;;;;;20.45;4.40;;;12.70;99.90;;;;;;4150816;28;20264;-88
2022/09/20 06:52:56;;;;;;;12.98;4.00;;;12.70;99.90;;;;;;4151552;28;20212;-88
2022/09/20 06:54:56;;;;;;;10.85;3.85;;;12.60;99.90;;;;;;4135565;28;20277;-89
2022/09/20 06:57:01;;;;;;;9.93;3.90;;;13.00;99.90;;;;;;4136182;28;20181;-89
2022/09/20 06:59:03;;;;;;;11.32;3.33;;;14.20;99.90;;;;;;4134814;28;20693;-88
2022/09/20 07:01:04;;;;;;;8.70;2.83;;;15.50;99.90;;;;;;4151913;28;20259;-88
2022/09/20 07:03:05;;;;;;;10.25;3.00;;;16.70;99.90;;;;;;4150922;28;20176;-87
2022/09/20 07:05:12;;;;;;;6.75;2.70;;;17.80;99.90;;;;;;4134857;28;20170;-88
2022/09/20 07:07:17;;;;;;;11.82;3.03;;;18.90;99.90;;;;;;4150780;28;20263;-88
2022/09/20 07:09:18;;;;;;;9.35;2.60;;;20.10;99.90;;;;;;4150805;28;20196;-88
2022/09/20 07:11:20;;;;;;;10.15;2.60;;;20.80;99.90;;;;;;4150678;28;20180;-89
2022/09/20 07:13:22;;;;;;;8.18;3.05;;;21.50;99.90;;;;;;4133939;28;20542;-96
2022/09/20 07:15:23;;;;;;;7.45;2.65;;;21.80;99.90;;;;;;4150660;28;20267;-91
2022/09/20 07:17:24;;;;;;;11.13;2.33;;;22.50;99.90;;;;;;4168801;28;20176;-94
2022/09/20 07:19:25;;;;;;;6.53;2.30;;;22.90;99.90;;;;;;4134846;28;20189;-90
2022/09/20 07:21:25;;;;;;;6.82;2.45;;;23.60;99.90;;;;;;4135678;28;20189;-90
2022/09/20 07:23:28;;;;;;;9.45;2.58;;;23.80;99.90;;;;;;4135527;28;20205;-94
2022/09/20 07:25:30;;;;;;;9.75;2.70;;;24.30;99.90;;;;;;4134790;28;20276;-90
2022/09/20 07:27:31;;;;;;;7.35;2.53;;;24.40;99.90;;;;;;4134361;28;20232;-94
2022/09/20 07:29:34;;;;;;;10.70;2.78;;;24.80;99.90;;;;;;4134501;28;20666;-89
2022/09/20 07:31:34;;;;;;;16.55;5.47;;;24.70;99.90;;;;;;4167116;28;20212;-90
2022/09/20 07:33:35;;;;;;;16.08;7.45;;;24.80;99.90;;;;;;4134210;28;20161;-90
2022/09/20 07:35:36;;;;;;;12.82;4.22;;;24.90;99.90;;;;;;4133964;28;20219;-90
2022/09/20 07:37:40;;;;;;;11.93;5.15;;;25.00;99.90;;;;;;4150312;28;20169;-91
2022/09/20 07:39:40;;;;;;;13.38;4.90;;;24.90;99.90;;;;;;4134276;28;20197;-92
2022/09/20 07:41:44;;;;;;;27.10;15.35;;;25.00;99.90;;;;;;4134361;28;20178;-94
2022/09/20 07:43:45;;;;;;;17.75;10.30;;;25.50;99.90;;;;;;4151058;28;20252;-90
2022/09/20 07:45:53;;;;;;;13.02;7.13;;;26.10;99.90;;;;;;4134287;28;20232;-91
2022/09/20 07:47:57;;;;;;;9.40;5.07;;;25.50;99.90;;;;;;4134762;28;20184;-91
2022/09/20 07:49:57;;;;;;;9.48;2.53;;;25.60;99.90;;;;;;4134004;28;20200;-91
2022/09/20 07:51:58;;;;;;;8.45;3.00;;;25.80;99.90;;;;;;4134204;28;20530;-90
2022/09/20 07:53:59;;;;;;;6.40;3.15;;;26.10;99.90;;;;;;4150188;28;20172;-91
2022/09/20 07:56:00;;;;;;;6.55;2.70;;;26.10;99.90;;;;;;4149996;28;20588;-96
2022/09/20 07:58:01;;;;;;;6.78;2.97;;;25.90;99.90;;;;;;4150071;28;20244;-90
2022/09/20 08:00:05;;;;;;;8.05;2.58;;;26.00;99.90;;;;;;4133961;28;20185;-94
2022/09/20 08:02:14;;;;;;;11.73;3.30;;;25.90;99.90;;;;;;4150721;28;20212;-91
2022/09/20 08:04:15;;;;;;;9.82;3.55;;;26.10;99.90;;;;;;4133582;28;20216;-91
2022/09/20 08:06:17;;;;;;;5.10;2.70;;;25.70;99.90;;;;;;4134293;28;20170;-90
2022/09/20 08:08:18;;;;;;;12.40;3.15;;;26.00;99.90;;;;;;4134640;28;20192;-95
2022/09/20 08:10:25;;;;;;;5.93;3.00;;;25.60;99.90;;;;;;4151853;28;20200;-91
2022/09/20 08:12:26;;;;;;;12.73;3.30;;;25.40;99.90;;;;;;4135731;28;20178;-96
2022/09/20 08:14:27;;;;;;;10.65;2.88;;;26.10;99.90;;;;;;4133342;28;20225;-91
2022/09/20 08:16:29;;;;;;;4.90;3.10;;;26.60;99.90;;;;;;4133318;28;20260;-93
2022/09/20 08:18:30;;;;;;;7.15;2.88;;;25.80;99.90;;;;;;4149482;28;20231;-95
2022/09/20 08:20:33;;;;;;;10.43;3.00;;;24.50;99.90;;;;;;4148815;28;20177;-90
2022/09/20 08:22:34;;;;;;;8.07;3.35;;;24.00;99.90;;;;;;4149812;28;20177;-91
2022/09/20 08:24:35;;;;;;;14.60;4.32;;;24.00;99.90;;;;;;4132562;28;20170;-90
2022/09/20 08:26:36;;;;;;;9.20;3.08;;;23.80;99.90;;;;;;4149697;28;20189;-91
2022/09/20 08:28:37;;;;;;;8.65;3.22;;;22.50;99.90;;;;;;4149615;28;20209;-91
2022/09/20 08:30:38;;;;;;;10.52;3.08;;;21.90;99.90;;;;;;4148937;28;20173;-91
2022/09/20 08:32:40;;;;;;;14.00;4.13;;;20.90;99.90;;;;;;4133107;28;20288;-94
2022/09/20 08:34:40;;;;;;;17.33;4.63;;;20.60;99.90;;;;;;4165639;28;20472;-94
2022/09/20 08:36:46;;;;;;;15.90;5.93;;;20.00;99.90;;;;;;4132874;28;20174;-91
2022/09/20 08:38:47;;;;;;;9.50;3.55;;;19.80;99.90;;;;;;4133007;28;20217;-94
2022/09/20 08:40:48;;;;;;;18.20;3.47;;;20.10;99.90;;;;;;4133275;28;20176;-94
2022/09/20 08:42:49;;;;;;;8.55;2.65;;;20.00;99.90;;;;;;4165494;28;20540;-91
2022/09/20 08:45:04;;;;;;;12.85;3.10;;;20.70;99.90;;;;;;4150277;28;20183;-96
2022/09/20 08:47:21;;;;;;;10.05;3.10;;;21.70;99.90;;;;;;4139153;28;20178;-90
2022/09/20 08:49:28;;;;;;;8.05;2.90;;;21.30;99.90;;;;;;4155058;28;20184;-96
2022/09/20 08:51:33;;;;;;;6.72;2.65;;;20.70;99.90;;;;;;4138152;28;20182;-96
2022/09/20 08:53:34;;;;;;;12.35;2.75;;;20.70;99.90;;;;;;4137554;28;20188;-89
2022/09/20 08:55:39;;;;;;;13.68;3.40;;;21.00;99.90;;;;;;4164235;22;20243;-95
2022/09/20 08:57:40;;;;;;;6.18;2.65;;;21.30;99.90;;;;;;4165441;28;20203;-95
2022/09/20 08:59:42;;;;;;;7.07;2.40;;;21.40;99.90;;;;;;4165114;28;20580;-96
2022/09/20 09:01:43;;;;;;;10.05;2.50;;;21.70;99.90;;;;;;4165270;28;20255;-96
2022/09/20 09:03:44;;;;;;;11.82;3.42;;;21.70;99.90;;;;;;4165203;28;20263;-94
2022/09/20 09:05:51;;;;;;;8.20;2.53;;;21.90;99.90;;;;;;4165244;28;20168;-95
2022/09/20 09:07:52;;;;;;;11.20;2.50;;;22.10;99.90;;;;;;4165474;28;20175;-94
2022/09/20 09:09:55;;;;;;;10.32;2.05;;;22.00;99.90;;;;;;4165133;28;20195;-96
2022/09/20 09:11:57;;;;;;;10.75;2.17;;;21.70;99.90;;;;;;4165350;28;20184;-94
2022/09/20 09:16:34;;;;;;;6.28;1.40;;;21.80;99.90;;;;;;4181398;28;20279;-94
2022/09/20 09:18:38;;;;;;;6.63;1.20;;;21.90;99.90;;;;;;4181601;28;20196;-95
2022/09/20 09:20:43;;;;;;;2.75;0.70;;;22.10;99.90;;;;;;4165162;28;20343;-94
2022/09/20 09:22:45;;;;;;;5.82;1.00;;;22.10;99.90;;;;;;4164894;28;20267;-91
2022/09/20 09:25:05;;;;;;;5.18;0.70;;;21.70;99.90;;;;;;4181412;28;20230;-93
2022/09/20 09:27:13;;;;;;;5.57;1.10;;;22.10;99.90;;;;;;4164788;28;20210;-95
2022/09/20 09:29:18;;;;;;;6.85;0.95;;;22.10;99.90;;;;;;4181054;28;20548;-90
2022/09/20 09:31:27;;;;;;;5.28;0.98;;;21.70;99.90;;;;;;4164734;28;20183;-92
2022/09/20 09:33:29;;;;;;;5.28;0.90;;;21.40;99.90;;;;;;4164978;28;20262;-92
2022/09/20 09:35:30;;;;;;;5.93;0.95;;;21.60;99.90;;;;;;4164535;28;20246;-93
2022/09/20 09:37:31;;;;;;;6.20;1.20;;;22.10;99.90;;;;;;4164858;28;20171;-93
2022/09/20 09:39:37;;;;;;;3.25;0.95;;;22.10;99.90;;;;;;4164534;28;20196;-94
2022/09/20 09:41:37;;;;;;;5.38;1.10;;;22.50;99.90;;;;;;4164895;28;20168;-93
2022/09/20 09:43:39;;;;;;;6.47;1.20;;;22.70;99.90;;;;;;4148309;28;20180;-93
2022/09/20 09:45:41;;;;;;;7.65;1.13;;;22.90;99.90;;;;;;4148552;28;20763;-93
2022/09/20 09:47:43;;;;;;;3.00;0.93;;;22.80;99.90;;;;;;4164427;28;20187;-94
2022/09/20 09:49:58;;;;;;;8.32;0.90;;;22.00;99.90;;;;;;4147936;28;20668;-95
2022/09/20 09:52:21;;;;;;;6.88;1.13;;;21.80;99.90;;;;;;4164715;28;20168;-93
2022/09/20 09:54:24;;;;;;;6.60;0.90;;;21.60;99.90;;;;;;4164938;28;20184;-95
2022/09/20 09:57:00;;;;;;;8.48;0.80;;;21.70;99.90;;;;;;4164910;28;20196;-94
2022/09/20 09:59:40;;;;;;;8.40;1.02;;;20.80;99.90;;;;;;4181282;28;20221;-93
2022/09/20 10:01:56;;;;;;;12.48;0.90;;;19.80;99.90;;;;;;4164700;28;20215;-94
2022/09/20 10:03:59;;;;;;;7.60;0.82;;;19.70;99.90;;;;;;4180931;28;20258;-94
2022/09/20 10:06:13;;;;;;;6.43;0.95;;;19.30;99.90;;;;;;4164614;28;20179;-94
2022/09/20 10:08:26;;;;;;;13.32;1.02;;;19.30;99.90;;;;;;4164682;28;20184;-94
2022/09/20 10:10:40;;;;;;;5.55;0.85;;;19.30;99.90;;;;;;4181034;28;20273;-94
2022/09/20 10:13:09;;;;;;;2.95;0.60;;;19.20;99.90;;;;;;4164567;28;20616;-94
2022/09/20 10:15:42;;;;;;;4.55;0.80;;;19.10;99.90;;;;;;4180858;28;20223;-94
2022/09/20 10:18:16;;;;;;;3.35;0.85;;;18.50;99.90;;;;;;4170430;28;20190;-92
2022/09/20 10:20:36;;;;;;;2.95;0.68;;;18.20;99.90;;;;;;4164542;28;20670;-94
2022/09/20 10:23:05;;;;;;;5.00;0.73;;;18.60;99.90;;;;;;4164836;28;20678;-94
2022/09/20 10:25:24;;;;;;;4.68;0.70;;;19.00;99.90;;;;;;4181072;28;20172;-93
2022/09/20 10:27:27;;;;;;;3.72;0.73;;;19.20;99.90;;;;;;4164578;28;20659;-94
2022/09/20 10:29:46;;;;;;;3.15;0.60;;;19.20;99.90;;;;;;4180766;28;20199;-93
2022/09/20 10:31:55;;;;;;;7.72;0.98;;;19.20;99.90;;;;;;4164585;28;20172;-94
2022/09/20 10:34:04;;;;;;;4.82;0.50;;;19.20;99.90;;;;;;4180884;28;20175;-93
2022/09/20 10:36:19;;;;;;;5.10;0.73;;;19.00;99.90;;;;;;4164208;28;20226;-93
2022/09/20 10:38:30;;;;;;;3.78;0.40;;;19.40;99.90;;;;;;4180687;28;20175;-94
2022/09/20 10:43:35;;;;;;;2.80;0.73;;;19.60;99.90;;;;;;4180889;28;20187;-94
2022/09/20 10:46:07;;;;;;;7.90;0.77;;;19.50;99.90;;;;;;4164050;28;20180;-92
2022/09/20 10:48:31;;;;;;;3.97;0.65;;;19.40;99.90;;;;;;4176307;28;20221;-93
2022/09/20 10:51:04;;;;;;;9.15;0.98;;;19.10;99.90;;;;;;4167091;28;20172;-93
2022/09/20 10:53:16;;;;;;;4.10;0.60;;;19.00;99.90;;;;;;4167495;28;20230;-94
2022/09/20 10:55:25;;;;;;;5.18;0.80;;;19.00;99.90;;;;;;4167112;28;20199;-94
2022/09/20 10:57:54;;;;;;;6.57;0.82;;;19.00;99.90;;;;;;4183792;28;20260;-93
2022/09/20 11:00:17;;;;;;;8.68;0.70;;;18.80;99.90;;;;;;4167132;28;20192;-94
2022/09/20 11:02:36;;;;;;;4.10;0.90;;;18.30;99.90;;;;;;4183687;28;20183;-93
2022/09/20 11:04:42;;;;;;;4.35;1.10;;;18.60;99.90;;;;;;4167176;28;20307;-95
2022/09/20 11:06:49;;;;;;;5.55;0.75;;;19.00;99.90;;;;;;4183686;28;20163;-94
2022/09/20 11:08:54;;;;;;;10.65;1.45;;;19.00;99.90;;;;;;4166959;28;20207;-91
2022/09/20 11:10:59;;;;;;;6.82;0.65;;;18.80;99.90;;;;;;4167200;28;20168;-93
2022/09/20 11:13:14;;;;;;;7.72;1.10;;;18.50;99.90;;;;;;4183384;28;20183;-93
2022/09/20 11:15:22;;;;;;;4.72;1.00;;;18.60;99.90;;;;;;4166995;28;20234;-94
2022/09/20 11:17:31;;;;;;;4.70;0.90;;;18.90;99.90;;;;;;4166691;28;20172;-93
2022/09/20 11:19:44;;;;;;;7.25;1.20;;;19.30;99.90;;;;;;4166750;28;20692;-94
2022/09/20 11:22:10;;;;;;;7.47;1.13;;;18.80;99.90;;;;;;4183279;28;20179;-93
2022/09/20 11:24:33;;;;;;;5.90;0.88;;;18.50;99.90;;;;;;4153468;28;20181;-95
2022/09/20 11:26:40;;;;;;;7.75;1.10;;;18.50;99.90;;;;;;4183195;28;20176;-93
2022/09/20 11:28:46;;;;;;;4.03;1.10;;;18.70;99.90;;;;;;4166773;28;20199;-93
2022/09/20 11:31:06;;;;;;;8.32;1.00;;;18.80;99.90;;;;;;4166913;28;20184;-94
2022/09/20 11:33:06;;;;;;;4.97;0.80;;;18.50;99.90;;;;;;4167038;28;20180;-92
2022/09/20 11:35:10;;;;;;;5.82;1.30;;;19.00;99.90;;;;;;4167492;28;20188;-94
2022/09/20 11:37:10;;;;;;;8.43;0.93;;;19.20;99.90;;;;;;4152029;28;20181;-93
2022/09/20 11:39:19;;;;;;;6.60;0.90;;;19.00;99.90;;;;;;4170830;28;20195;-94
2022/09/20 11:41:28;;;;;;;4.90;1.10;;;19.00;99.90;;;;;;4187203;28;20168;-93